sensor_id;sensor_type;location;lat;lon;timestamp;pressure;altitude;pressure_sealevel;temperature;humidity
77574;BME280;66710;48.868;9.080;2023-04-15T00:02:13;97054.88;;;3.47;73.23
77574;BME280;66710;48.868;9.080;2023-04-15T00:04:39;97045.41;;;3.44;73.33
77574;BME280;66710;48.868;9.080;2023-04-15T00:07:04;97058.22;;;3.37;73.42
77574;BME280;66710;48.868;9.080;2023-04-15T00:09:29;97053.63;;;3.32;73.70
77574;BME280;66710;48.868;9.080;2023-04-15T00:11:54;97051.00;;;3.37;73.87
77574;BME280;66710;48.868;9.080;2023-04-15T00:14:20;97055.84;;;3.40;73.22
77574;BME280;66710;48.868;9.080;2023-04-15T00:16:45;97057.75;;;3.40;73.67
77574;BME280;66710;48.868;9.080;2023-04-15T00:19:10;97058.50;;;3.35;73.75
77574;BME280;66710;48.868;9.080;2023-04-15T00:21:36;97052.53;;;3.33;74.44
77574;BME280;66710;48.868;9.080;2023-04-15T00:24:01;97056.56;;;3.31;75.01
77574;BME280;66710;48.868;9.080;2023-04-15T00:26:26;97054.19;;;3.34;74.87
77574;BME280;66710;48.868;9.080;2023-04-15T00:28:51;97055.34;;;3.44;74.68
77574;BME280;66710;48.868;9.080;2023-04-15T00:31:17;97051.06;;;3.42;73.90
77574;BME280;66710;48.868;9.080;2023-04-15T00:33:43;97051.47;;;3.34;74.32
77574;BME280;66710;48.868;9.080;2023-04-15T00:36:09;97050.59;;;3.29;74.81
77574;BME280;66710;48.868;9.080;2023-04-15T00:38:36;97046.78;;;3.25;75.12
77574;BME280;66710;48.868;9.080;2023-04-15T00:41:02;97045.72;;;3.26;75.12
77574;BME280;66710;48.868;9.080;2023-04-15T00:43:27;97047.59;;;3.25;74.83
77574;BME280;66710;48.868;9.080;2023-04-15T00:45:54;97044.59;;;3.21;75.00
77574;BME280;66710;48.868;9.080;2023-04-15T00:48:21;97044.53;;;3.16;75.38
77574;BME280;66710;48.868;9.080;2023-04-15T00:50:47;97036.81;;;3.03;76.54
77574;BME280;66710;48.868;9.080;2023-04-15T00:53:12;97039.72;;;3.01;75.89
77574;BME280;66710;48.868;9.080;2023-04-15T00:55:38;97048.06;;;3.00;76.18
77574;BME280;66710;48.868;9.080;2023-04-15T00:58:04;97057.38;;;2.92;76.60
77574;BME280;66710;48.868;9.080;2023-04-15T01:00:29;97055.16;;;2.89;76.51
77574;BME280;66710;48.868;9.080;2023-04-15T01:02:55;97052.78;;;2.93;76.47
77574;BME280;66710;48.868;9.080;2023-04-15T01:05:20;97054.13;;;2.90;75.70
77574;BME280;66710;48.868;9.080;2023-04-15T01:07:46;97055.34;;;2.82;75.54
77574;BME280;66710;48.868;9.080;2023-04-15T01:10:12;97054.03;;;2.85;75.26
77574;BME280;66710;48.868;9.080;2023-04-15T01:12:38;97053.47;;;2.83;76.03
77574;BME280;66710;48.868;9.080;2023-04-15T01:15:05;97048.66;;;2.85;75.50
77574;BME280;66710;48.868;9.080;2023-04-15T01:17:30;97041.72;;;2.89;75.67
77574;BME280;66710;48.868;9.080;2023-04-15T01:19:56;97037.50;;;2.93;74.89
77574;BME280;66710;48.868;9.080;2023-04-15T01:22:23;97041.22;;;2.92;75.09
77574;BME280;66710;48.868;9.080;2023-04-15T01:25:05;97050.22;;;2.81;75.56
77574;BME280;66710;48.868;9.080;2023-04-15T01:27:33;97047.38;;;2.71;75.99
77574;BME280;66710;48.868;9.080;2023-04-15T01:29:59;97047.53;;;2.64;76.69
77574;BME280;66710;48.868;9.080;2023-04-15T01:32:25;97046.41;;;2.60;76.35
77574;BME280;66710;48.868;9.080;2023-04-15T01:34:51;97050.38;;;2.57;76.37
77574;BME280;66710;48.868;9.080;2023-04-15T01:37:16;97043.16;;;2.58;76.48
77574;BME280;66710;48.868;9.080;2023-04-15T01:39:42;97041.44;;;2.69;76.30
77574;BME280;66710;48.868;9.080;2023-04-15T01:42:07;97036.38;;;2.72;76.01
77574;BME280;66710;48.868;9.080;2023-04-15T01:44:32;97037.75;;;2.75;75.52
77574;BME280;66710;48.868;9.080;2023-04-15T01:46:58;97041.75;;;2.72;75.81
77574;BME280;66710;48.868;9.080;2023-04-15T01:49:23;97042.41;;;2.62;76.43
77574;BME280;66710;48.868;9.080;2023-04-15T01:51:49;97043.97;;;2.58;76.25
77574;BME280;66710;48.868;9.080;2023-04-15T01:54:14;97040.38;;;2.53;76.97
77574;BME280;66710;48.868;9.080;2023-04-15T01:56:40;97040.38;;;2.53;76.86
77574;BME280;66710;48.868;9.080;2023-04-15T01:59:06;97040.19;;;2.59;76.27
77574;BME280;66710;48.868;9.080;2023-04-15T02:01:31;97043.47;;;2.61;76.91
77574;BME280;66710;48.868;9.080;2023-04-15T02:03:57;97043.72;;;2.60;76.81
77574;BME280;66710;48.868;9.080;2023-04-15T02:06:22;97044.69;;;2.54;76.84
77574;BME280;66710;48.868;9.080;2023-04-15T02:08:48;97040.38;;;2.53;76.99
77574;BME280;66710;48.868;9.080;2023-04-15T02:11:14;97044.69;;;2.54;76.93
77574;BME280;66710;48.868;9.080;2023-04-15T02:13:39;97044.69;;;2.54;77.00
77574;BME280;66710;48.868;9.080;2023-04-15T02:16:15;97040.06;;;2.49;76.61
77574;BME280;66710;48.868;9.080;2023-04-15T02:18:40;97040.88;;;2.50;77.00
77574;BME280;66710;48.868;9.080;2023-04-15T02:21:06;97028.78;;;2.52;76.59
77574;BME280;66710;48.868;9.080;2023-04-15T02:23:31;97028.16;;;2.45;77.20
77574;BME280;66710;48.868;9.080;2023-04-15T02:25:56;97031.81;;;2.39;77.57
77574;BME280;66710;48.868;9.080;2023-04-15T02:28:22;97037.44;;;2.37;77.74
77574;BME280;66710;48.868;9.080;2023-04-15T02:30:50;97039.66;;;2.40;77.62
77574;BME280;66710;48.868;9.080;2023-04-15T02:33:17;97029.38;;;2.37;77.57
77574;BME280;66710;48.868;9.080;2023-04-15T02:35:43;97029.84;;;2.34;78.11
77574;BME280;66710;48.868;9.080;2023-04-15T02:38:10;97031.66;;;2.28;77.49
77574;BME280;66710;48.868;9.080;2023-04-15T02:40:35;97028.88;;;2.23;77.64
77574;BME280;66710;48.868;9.080;2023-04-15T02:43:01;97029.13;;;2.22;77.30
77574;BME280;66710;48.868;9.080;2023-04-15T02:45:27;97025.38;;;2.23;77.85
77574;BME280;66710;48.868;9.080;2023-04-15T02:47:53;97023.03;;;2.26;77.67
77574;BME280;66710;48.868;9.080;2023-04-15T02:50:19;97018.38;;;2.39;77.15
77574;BME280;66710;48.868;9.080;2023-04-15T02:52:45;97022.97;;;2.38;76.38
77574;BME280;66710;48.868;9.080;2023-04-15T02:55:10;97023.34;;;2.30;76.96
77574;BME280;66710;48.868;9.080;2023-04-15T02:57:37;97018.06;;;2.35;77.44
77574;BME280;66710;48.868;9.080;2023-04-15T03:00:04;97015.38;;;2.35;77.19
77574;BME280;66710;48.868;9.080;2023-04-15T03:02:36;97019.91;;;2.35;77.10
77574;BME280;66710;48.868;9.080;2023-04-15T03:05:02;97012.44;;;2.37;77.23
77574;BME280;66710;48.868;9.080;2023-04-15T03:07:28;97016.19;;;2.36;77.22
77574;BME280;66710;48.868;9.080;2023-04-15T03:09:53;97017.91;;;2.42;76.70
77574;BME280;66710;48.868;9.080;2023-04-15T03:12:19;97012.94;;;2.34;76.31
77574;BME280;66710;48.868;9.080;2023-04-15T03:14:44;97013.97;;;2.50;76.03
77574;BME280;66710;48.868;9.080;2023-04-15T03:17:10;97013.50;;;2.36;76.70
77574;BME280;66710;48.868;9.080;2023-04-15T03:19:35;97027.25;;;2.22;78.20
77574;BME280;66710;48.868;9.080;2023-04-15T03:22:01;97028.59;;;2.08;78.39
77574;BME280;66710;48.868;9.080;2023-04-15T03:24:26;97028.19;;;1.99;78.53
77574;BME280;66710;48.868;9.080;2023-04-15T03:26:53;97034.53;;;1.93;78.67
77574;BME280;66710;48.868;9.080;2023-04-15T03:29:19;97032.28;;;2.02;78.67
77574;BME280;66710;48.868;9.080;2023-04-15T03:31:44;97035.69;;;1.97;78.54
77574;BME280;66710;48.868;9.080;2023-04-15T03:34:10;97030.88;;;1.99;78.82
77574;BME280;66710;48.868;9.080;2023-04-15T03:36:35;97029.03;;;2.00;79.12
77574;BME280;66710;48.868;9.080;2023-04-15T03:39:01;97025.59;;;2.04;79.15
77574;BME280;66710;48.868;9.080;2023-04-15T03:41:27;97022.56;;;1.84;79.71
77574;BME280;66710;48.868;9.080;2023-04-15T03:43:53;97020.81;;;1.61;81.00
77574;BME280;66710;48.868;9.080;2023-04-15T03:46:18;97021.94;;;1.65;80.79
77574;BME280;66710;48.868;9.080;2023-04-15T03:48:44;97017.34;;;1.77;80.35
77574;BME280;66710;48.868;9.080;2023-04-15T03:51:09;97024.31;;;1.78;80.11
77574;BME280;66710;48.868;9.080;2023-04-15T03:53:35;97015.78;;;1.64;80.59
77574;BME280;66710;48.868;9.080;2023-04-15T03:56:01;97019.81;;;1.67;80.58
77574;BME280;66710;48.868;9.080;2023-04-15T03:58:26;97020.25;;;1.76;79.65
77574;BME280;66710;48.868;9.080;2023-04-15T04:00:52;97030.13;;;1.87;79.56
77574;BME280;66710;48.868;9.080;2023-04-15T04:03:17;97026.28;;;1.83;79.28
77574;BME280;66710;48.868;9.080;2023-04-15T04:05:43;97025.81;;;1.86;79.27
77574;BME280;66710;48.868;9.080;2023-04-15T04:08:08;97025.59;;;2.04;79.18
77574;BME280;66710;48.868;9.080;2023-04-15T04:10:34;97033.72;;;1.93;79.17
77574;BME280;66710;48.868;9.080;2023-04-15T04:13:00;97036.91;;;1.89;79.42
77574;BME280;66710;48.868;9.080;2023-04-15T04:15:26;97033.91;;;1.74;79.58
77574;BME280;66710;48.868;9.080;2023-04-15T04:17:51;97036.84;;;1.73;79.67
77574;BME280;66710;48.868;9.080;2023-04-15T04:20:16;97038.72;;;1.72;79.90
77574;BME280;66710;48.868;9.080;2023-04-15T04:22:42;97030.19;;;1.75;79.56
77574;BME280;66710;48.868;9.080;2023-04-15T04:25:08;97041.06;;;1.68;79.77
77574;BME280;66710;48.868;9.080;2023-04-15T04:27:34;97039.31;;;1.62;80.28
77574;BME280;66710;48.868;9.080;2023-04-15T04:30:00;97047.88;;;1.59;80.58
77574;BME280;66710;48.868;9.080;2023-04-15T04:32:26;97047.16;;;1.64;80.76
77574;BME280;66710;48.868;9.080;2023-04-15T04:34:51;97042.97;;;1.56;80.24
77574;BME280;66710;48.868;9.080;2023-04-15T04:37:16;97049.59;;;1.65;80.43
77574;BME280;66710;48.868;9.080;2023-04-15T04:39:42;97047.44;;;1.79;80.29
77574;BME280;66710;48.868;9.080;2023-04-15T04:42:08;97045.75;;;1.90;79.17
77574;BME280;66710;48.868;9.080;2023-04-15T04:44:33;97046.00;;;1.88;79.86
77574;BME280;66710;48.868;9.080;2023-04-15T04:46:58;97049.25;;;1.90;79.68
77574;BME280;66710;48.868;9.080;2023-04-15T04:49:24;97049.50;;;1.89;79.24
77574;BME280;66710;48.868;9.080;2023-04-15T04:51:50;97058.97;;;1.80;79.55
77574;BME280;66710;48.868;9.080;2023-04-15T04:54:15;97057.66;;;1.65;80.55
77574;BME280;66710;48.868;9.080;2023-04-15T04:56:41;97059.84;;;1.68;80.08
77574;BME280;66710;48.868;9.080;2023-04-15T04:59:06;97064.88;;;1.65;80.15
77574;BME280;66710;48.868;9.080;2023-04-15T05:01:32;97065.69;;;1.65;79.79
77574;BME280;66710;48.868;9.080;2023-04-15T05:03:57;97069.13;;;1.61;80.09
77574;BME280;66710;48.868;9.080;2023-04-15T05:06:22;97063.81;;;1.66;79.25
77574;BME280;66710;48.868;9.080;2023-04-15T05:08:48;97066.59;;;1.71;79.62
77574;BME280;66710;48.868;9.080;2023-04-15T05:11:13;97063.81;;;1.66;80.21
77574;BME280;66710;48.868;9.080;2023-04-15T05:13:38;97070.81;;;1.67;80.33
77574;BME280;66710;48.868;9.080;2023-04-15T05:16:05;97067.81;;;1.63;80.58
77574;BME280;66710;48.868;9.080;2023-04-15T05:18:30;97064.88;;;1.65;80.49
77574;BME280;66710;48.868;9.080;2023-04-15T05:20:56;97064.75;;;1.72;80.46
77574;BME280;66710;48.868;9.080;2023-04-15T05:23:21;97058.09;;;1.74;80.49
77574;BME280;66710;48.868;9.080;2023-04-15T05:25:47;97064.03;;;1.76;79.82
77574;BME280;66710;48.868;9.080;2023-04-15T05:28:12;97058.84;;;1.86;79.73
77574;BME280;66710;48.868;9.080;2023-04-15T05:30:38;97058.22;;;1.96;79.18
77574;BME280;66710;48.868;9.080;2023-04-15T05:33:03;97057.22;;;2.14;79.90
77574;BME280;66710;48.868;9.080;2023-04-15T05:35:29;97059.56;;;2.27;78.35
77574;BME280;66710;48.868;9.080;2023-04-15T05:37:54;97063.00;;;2.40;78.22
77574;BME280;66710;48.868;9.080;2023-04-15T05:40:20;97055.75;;;2.57;77.29
77574;BME280;66710;48.868;9.080;2023-04-15T05:42:45;97053.00;;;2.69;76.88
77574;BME280;66710;48.868;9.080;2023-04-15T05:45:10;97052.66;;;2.82;77.70
77574;BME280;66710;48.868;9.080;2023-04-15T05:47:36;97055.78;;;2.96;76.25
77574;BME280;66710;48.868;9.080;2023-04-15T05:50:02;97052.69;;;3.04;76.14
77574;BME280;66710;48.868;9.080;2023-04-15T05:52:28;97058.53;;;3.18;77.11
77574;BME280;66710;48.868;9.080;2023-04-15T05:54:53;97065.13;;;3.28;75.32
77574;BME280;66710;48.868;9.080;2023-04-15T05:57:18;97059.63;;;3.39;75.58
77574;BME280;66710;48.868;9.080;2023-04-15T05:59:44;97061.31;;;3.46;75.29
77574;BME280;66710;48.868;9.080;2023-04-15T06:02:09;97061.31;;;3.46;75.30
77574;BME280;66710;48.868;9.080;2023-04-15T06:04:35;97059.81;;;3.55;75.36
77574;BME280;66710;48.868;9.080;2023-04-15T06:07:01;97064.50;;;3.65;75.23
77574;BME280;66710;48.868;9.080;2023-04-15T06:09:26;97059.50;;;3.73;75.15
77574;BME280;66710;48.868;9.080;2023-04-15T06:11:53;97065.06;;;3.89;74.30
77574;BME280;66710;48.868;9.080;2023-04-15T06:14:18;97063.84;;;4.02;74.44
77574;BME280;66710;48.868;9.080;2023-04-15T06:16:44;97061.81;;;4.14;74.38
77574;BME280;66710;48.868;9.080;2023-04-15T06:19:09;97064.84;;;4.23;73.71
77574;BME280;66710;48.868;9.080;2023-04-15T06:21:34;97065.47;;;4.30;73.71
77574;BME280;66710;48.868;9.080;2023-04-15T06:24:00;97069.56;;;4.37;73.55
77574;BME280;66710;48.868;9.080;2023-04-15T06:26:26;97075.09;;;4.53;73.70
77574;BME280;66710;48.868;9.080;2023-04-15T06:28:52;97081.19;;;4.70;74.25
77574;BME280;66710;48.868;9.080;2023-04-15T06:31:17;97074.91;;;4.97;73.36
77574;BME280;66710;48.868;9.080;2023-04-15T06:33:43;97075.09;;;4.90;72.04
77574;BME280;66710;48.868;9.080;2023-04-15T06:36:08;97076.28;;;5.00;70.94
77574;BME280;66710;48.868;9.080;2023-04-15T06:38:33;97084.72;;;5.61;72.39
77574;BME280;66710;48.868;9.080;2023-04-15T06:40:59;97088.31;;;5.77;71.08
77574;BME280;66710;48.868;9.080;2023-04-15T06:43:25;97086.44;;;5.83;69.83
77574;BME280;66710;48.868;9.080;2023-04-15T06:45:50;97093.00;;;6.02;69.29
77574;BME280;66710;48.868;9.080;2023-04-15T06:48:16;97093.91;;;6.29;67.73
77574;BME280;66710;48.868;9.080;2023-04-15T06:50:42;97101.22;;;6.49;67.36
77574;BME280;66710;48.868;9.080;2023-04-15T06:53:07;97092.84;;;6.76;67.37
77574;BME280;66710;48.868;9.080;2023-04-15T06:55:32;97092.03;;;6.96;65.95
77574;BME280;66710;48.868;9.080;2023-04-15T06:57:58;97081.22;;;6.80;66.16
77574;BME280;66710;48.868;9.080;2023-04-15T07:00:23;97092.56;;;6.77;67.06
77574;BME280;66710;48.868;9.080;2023-04-15T07:02:49;97085.81;;;6.90;67.14
77574;BME280;66710;48.868;9.080;2023-04-15T07:05:15;97088.06;;;7.74;64.93
77574;BME280;66710;48.868;9.080;2023-04-15T07:07:41;97091.09;;;8.22;63.01
77574;BME280;66710;48.868;9.080;2023-04-15T07:10:07;97084.63;;;8.63;61.64
77574;BME280;66710;48.868;9.080;2023-04-15T07:12:33;97086.53;;;8.18;62.15
77574;BME280;66710;48.868;9.080;2023-04-15T07:14:59;97092.47;;;9.04;61.38
77574;BME280;66710;48.868;9.080;2023-04-15T07:17:24;97083.53;;;8.98;60.92
77574;BME280;66710;48.868;9.080;2023-04-15T07:19:50;97085.00;;;9.20;61.15
77574;BME280;66710;48.868;9.080;2023-04-15T07:22:16;97086.63;;;9.16;60.97
77574;BME280;66710;48.868;9.080;2023-04-15T07:24:41;97085.13;;;9.82;58.41
77574;BME280;66710;48.868;9.080;2023-04-15T07:27:06;97080.94;;;9.71;56.24
77574;BME280;66710;48.868;9.080;2023-04-15T07:29:32;97077.75;;;10.06;56.08
77574;BME280;66710;48.868;9.080;2023-04-15T07:31:58;97083.47;;;10.48;54.78
77574;BME280;66710;48.868;9.080;2023-04-15T07:34:23;97074.03;;;11.11;52.45
77574;BME280;66710;48.868;9.080;2023-04-15T07:36:48;97078.78;;;10.54;53.89
77574;BME280;66710;48.868;9.080;2023-04-15T07:39:17;97079.34;;;10.07;55.02
77574;BME280;66710;48.868;9.080;2023-04-15T07:41:43;97075.53;;;9.65;54.18
77574;BME280;66710;48.868;9.080;2023-04-15T07:44:08;97080.56;;;8.95;55.84
77574;BME280;66710;48.868;9.080;2023-04-15T07:46:34;97079.63;;;9.09;55.93
77574;BME280;66710;48.868;9.080;2023-04-15T07:48:59;97082.66;;;9.37;55.84
77574;BME280;66710;48.868;9.080;2023-04-15T07:51:28;97079.75;;;9.28;55.74
77574;BME280;66710;48.868;9.080;2023-04-15T07:53:54;97078.50;;;9.69;56.03
77574;BME280;66710;48.868;9.080;2023-04-15T07:56:19;97083.97;;;9.88;55.89
77574;BME280;66710;48.868;9.080;2023-04-15T07:58:46;97078.56;;;10.07;55.06
77574;BME280;66710;48.868;9.080;2023-04-15T08:01:11;97075.69;;;10.41;54.24
77574;BME280;66710;48.868;9.080;2023-04-15T08:03:37;97079.28;;;9.70;54.33
77574;BME280;66710;48.868;9.080;2023-04-15T08:06:03;97078.84;;;10.05;53.58
77574;BME280;66710;48.868;9.080;2023-04-15T08:08:28;97078.34;;;10.22;53.65
77574;BME280;66710;48.868;9.080;2023-04-15T08:10:54;97067.59;;;10.55;53.35
77574;BME280;66710;48.868;9.080;2023-04-15T08:13:20;97068.06;;;11.98;50.30
77574;BME280;66710;48.868;9.080;2023-04-15T08:15:45;97068.47;;;11.63;51.97
77574;BME280;66710;48.868;9.080;2023-04-15T08:18:11;97067.09;;;12.89;49.32
77574;BME280;66710;48.868;9.080;2023-04-15T08:20:36;97070.63;;;12.44;49.61
77574;BME280;66710;48.868;9.080;2023-04-15T08:23:02;97076.03;;;12.08;51.11
77574;BME280;66710;48.868;9.080;2023-04-15T08:25:28;97078.56;;;12.55;48.92
77574;BME280;66710;48.868;9.080;2023-04-15T08:27:54;97072.06;;;12.87;47.60
77574;BME280;66710;48.868;9.080;2023-04-15T08:30:21;97066.28;;;12.29;49.69
77574;BME280;66710;48.868;9.080;2023-04-15T08:32:46;97070.09;;;11.92;49.94
77574;BME280;66710;48.868;9.080;2023-04-15T08:35:12;97073.97;;;12.41;49.32
77574;BME280;66710;48.868;9.080;2023-04-15T08:37:38;97074.19;;;12.17;49.54
77574;BME280;66710;48.868;9.080;2023-04-15T08:40:03;97072.34;;;12.26;49.23
77574;BME280;66710;48.868;9.080;2023-04-15T08:42:36;97076.81;;;12.36;49.17
77574;BME280;66710;48.868;9.080;2023-04-15T08:45:08;97083.81;;;12.51;47.86
77574;BME280;66710;48.868;9.080;2023-04-15T08:47:35;97077.81;;;12.26;48.88
77574;BME280;66710;48.868;9.080;2023-04-15T08:50:03;97080.53;;;12.40;49.22
77574;BME280;66710;48.868;9.080;2023-04-15T08:52:30;97079.59;;;12.45;50.02
77574;BME280;66710;48.868;9.080;2023-04-15T08:54:56;97078.75;;;12.58;52.22
77574;BME280;66710;48.868;9.080;2023-04-15T08:57:27;97074.94;;;12.82;48.73
77574;BME280;66710;48.868;9.080;2023-04-15T08:59:54;97081.44;;;13.71;47.17
77574;BME280;66710;48.868;9.080;2023-04-15T09:02:20;97077.31;;;13.51;48.19
77574;BME280;66710;48.868;9.080;2023-04-15T09:04:47;97079.78;;;14.10;47.37
77574;BME280;66710;48.868;9.080;2023-04-15T09:07:12;97082.00;;;14.74;45.21
77574;BME280;66710;48.868;9.080;2023-04-15T09:09:38;97081.69;;;14.01;46.12
77574;BME280;66710;48.868;9.080;2023-04-15T09:12:04;97086.81;;;14.60;45.68
77574;BME280;66710;48.868;9.080;2023-04-15T09:14:29;97083.97;;;14.16;46.01
77574;BME280;66710;48.868;9.080;2023-04-15T09:17:03;97081.13;;;14.48;44.87
77574;BME280;66710;48.868;9.080;2023-04-15T09:19:30;97081.47;;;15.81;41.38
77574;BME280;66710;48.868;9.080;2023-04-15T09:21:56;97095.34;;;15.20;42.91
77574;BME280;66710;48.868;9.080;2023-04-15T09:24:23;97098.59;;;14.78;45.43
77574;BME280;66710;48.868;9.080;2023-04-15T09:26:51;97095.72;;;13.99;45.47
77574;BME280;66710;48.868;9.080;2023-04-15T09:29:18;97097.56;;;14.30;44.40
77574;BME280;66710;48.868;9.080;2023-04-15T09:31:44;97096.25;;;14.19;43.63
77574;BME280;66710;48.868;9.080;2023-04-15T09:34:10;97099.25;;;14.00;44.64
77574;BME280;66710;48.868;9.080;2023-04-15T09:36:50;97094.50;;;13.83;45.95
77574;BME280;66710;48.868;9.080;2023-04-15T09:39:16;97098.41;;;13.91;47.04
77574;BME280;66710;48.868;9.080;2023-04-15T09:41:42;97105.06;;;13.67;45.30
77574;BME280;66710;48.868;9.080;2023-04-15T09:44:22;97102.09;;;14.44;45.32
77574;BME280;66710;48.868;9.080;2023-04-15T09:46:47;97102.13;;;14.70;44.21
77574;BME280;66710;48.868;9.080;2023-04-15T09:49:13;97108.41;;;13.95;44.91
77574;BME280;66710;48.868;9.080;2023-04-15T09:51:38;97102.94;;;13.95;45.32
77574;BME280;66710;48.868;9.080;2023-04-15T09:54:04;97104.59;;;13.65;44.55
77574;BME280;66710;48.868;9.080;2023-04-15T09:56:37;97108.44;;;14.04;43.28
77574;BME280;66710;48.868;9.080;2023-04-15T09:59:06;97102.28;;;13.90;44.23
77574;BME280;66710;48.868;9.080;2023-04-15T10:01:31;97106.13;;;14.46;43.80
77574;BME280;66710;48.868;9.080;2023-04-15T10:03:57;97106.22;;;14.15;44.45
77574;BME280;66710;48.868;9.080;2023-04-15T10:06:25;97106.03;;;14.11;44.26
77574;BME280;66710;48.868;9.080;2023-04-15T10:08:51;97107.97;;;14.11;45.78
77574;BME280;66710;48.868;9.080;2023-04-15T10:11:18;97103.00;;;14.21;44.15
77574;BME280;66710;48.868;9.080;2023-04-15T10:13:45;97107.84;;;13.44;45.15
77574;BME280;66710;48.868;9.080;2023-04-15T10:16:14;97107.00;;;13.35;46.18
77574;BME280;66710;48.868;9.080;2023-04-15T10:18:43;97112.34;;;13.40;46.25
77574;BME280;66710;48.868;9.080;2023-04-15T10:21:09;97104.19;;;13.04;45.90
77574;BME280;66710;48.868;9.080;2023-04-15T10:23:35;97102.41;;;13.84;44.09
77574;BME280;66710;48.868;9.080;2023-04-15T10:26:02;97106.81;;;13.94;44.32
77574;BME280;66710;48.868;9.080;2023-04-15T10:28:28;97114.84;;;13.91;45.46
77574;BME280;66710;48.868;9.080;2023-04-15T10:30:54;97114.28;;;13.80;45.81
77574;BME280;66710;48.868;9.080;2023-04-15T10:33:22;97113.78;;;13.38;44.72
77574;BME280;66710;48.868;9.080;2023-04-15T10:35:48;97109.47;;;13.23;43.40
77574;BME280;66710;48.868;9.080;2023-04-15T10:38:41;97123.72;;;12.88;44.91
77574;BME280;66710;48.868;9.080;2023-04-15T10:41:24;97120.84;;;13.16;43.64
77574;BME280;66710;48.868;9.080;2023-04-15T10:43:55;97122.59;;;13.12;44.08
77574;BME280;66710;48.868;9.080;2023-04-15T10:46:23;97116.81;;;13.59;42.75
77574;BME280;66710;48.868;9.080;2023-04-15T10:48:51;97130.50;;;13.14;43.51
77574;BME280;66710;48.868;9.080;2023-04-15T10:51:30;97125.16;;;13.54;42.36
77574;BME280;66710;48.868;9.080;2023-04-15T10:53:57;97125.88;;;14.17;41.21
77574;BME280;66710;48.868;9.080;2023-04-15T10:56:23;97130.53;;;14.08;42.62
77574;BME280;66710;48.868;9.080;2023-04-15T10:58:48;97135.00;;;13.95;41.05
77574;BME280;66710;48.868;9.080;2023-04-15T11:01:14;97132.53;;;13.84;41.67
77574;BME280;66710;48.868;9.080;2023-04-15T11:03:41;97131.53;;;14.20;42.22
77574;BME280;66710;48.868;9.080;2023-04-15T11:06:07;97135.06;;;14.87;42.10
77574;BME280;66710;48.868;9.080;2023-04-15T11:08:58;97130.63;;;15.47;39.48
77574;BME280;66710;48.868;9.080;2023-04-15T11:12:07;97135.06;;;15.05;40.49
77574;BME280;66710;48.868;9.080;2023-04-15T11:14:39;97123.75;;;15.15;41.50
77574;BME280;66710;48.868;9.080;2023-04-15T11:17:06;97130.00;;;14.54;41.98
77574;BME280;66710;48.868;9.080;2023-04-15T11:19:36;97123.50;;;13.84;44.37
77574;BME280;66710;48.868;9.080;2023-04-15T11:22:09;97130.94;;;13.52;44.29
77574;BME280;66710;48.868;9.080;2023-04-15T11:24:35;97136.09;;;13.31;47.66
77574;BME280;66710;48.868;9.080;2023-04-15T11:27:01;97136.75;;;12.92;46.75
77574;BME280;66710;48.868;9.080;2023-04-15T11:29:30;97139.25;;;13.24;46.24
77574;BME280;66710;48.868;9.080;2023-04-15T11:32:07;97133.84;;;13.56;45.35
77574;BME280;66710;48.868;9.080;2023-04-15T11:34:33;97137.31;;;14.94;44.10
77574;BME280;66710;48.868;9.080;2023-04-15T11:37:03;97128.94;;;14.24;43.99
77574;BME280;66710;48.868;9.080;2023-04-15T11:39:28;97130.03;;;14.89;42.48
77574;BME280;66710;48.868;9.080;2023-04-15T11:41:53;97132.75;;;16.06;39.70
77574;BME280;66710;48.868;9.080;2023-04-15T11:44:18;97140.84;;;15.21;42.29
77574;BME280;66710;48.868;9.080;2023-04-15T11:46:44;97141.34;;;15.14;43.31
77574;BME280;66710;48.868;9.080;2023-04-15T11:49:09;97139.25;;;14.76;42.24
77574;BME280;66710;48.868;9.080;2023-04-15T11:51:35;97141.34;;;14.62;41.58
77574;BME280;66710;48.868;9.080;2023-04-15T11:54:00;97140.09;;;14.36;41.16
77574;BME280;66710;48.868;9.080;2023-04-15T11:56:26;97141.03;;;14.72;40.83
77574;BME280;66710;48.868;9.080;2023-04-15T11:58:56;97144.38;;;14.60;40.32
77574;BME280;66710;48.868;9.080;2023-04-15T12:01:36;97152.16;;;14.75;41.42
77574;BME280;66710;48.868;9.080;2023-04-15T12:04:14;97159.25;;;15.03;41.57
77574;BME280;66710;48.868;9.080;2023-04-15T12:06:39;97151.09;;;14.45;39.77
77574;BME280;66710;48.868;9.080;2023-04-15T12:14:21;97177.97;;;12.17;49.14
77574;BME280;66710;48.868;9.080;2023-04-15T12:16:50;97199.31;;;11.35;54.84
77574;BME280;66710;48.868;9.080;2023-04-15T12:19:26;97206.53;;;10.69;61.75
77574;BME280;66710;48.868;9.080;2023-04-15T12:21:57;97227.13;;;10.08;63.49
77574;BME280;66710;48.868;9.080;2023-04-15T12:24:23;97212.94;;;9.58;65.53
77574;BME280;66710;48.868;9.080;2023-04-15T12:26:51;97213.31;;;9.46;67.50
77574;BME280;66710;48.868;9.080;2023-04-15T12:29:17;97225.16;;;9.60;66.33
77574;BME280;66710;48.868;9.080;2023-04-15T12:31:50;97229.72;;;9.65;65.83
77574;BME280;66710;48.868;9.080;2023-04-15T12:34:17;97236.22;;;9.98;66.16
77574;BME280;66710;48.868;9.080;2023-04-15T12:36:42;97245.59;;;9.87;66.08
77574;BME280;66710;48.868;9.080;2023-04-15T12:39:08;97253.38;;;9.99;68.62
77574;BME280;66710;48.868;9.080;2023-04-15T12:41:33;97257.44;;;10.25;67.89
77574;BME280;66710;48.868;9.080;2023-04-15T12:43:59;97260.78;;;10.17;66.63
77574;BME280;66710;48.868;9.080;2023-04-15T12:46:25;97256.38;;;10.21;60.37
77574;BME280;66710;48.868;9.080;2023-04-15T12:48:51;97261.47;;;10.57;62.45
77574;BME280;66710;48.868;9.080;2023-04-15T12:51:18;97259.88;;;10.51;62.34
77574;BME280;66710;48.868;9.080;2023-04-15T12:53:45;97261.19;;;10.78;60.94
77574;BME280;66710;48.868;9.080;2023-04-15T12:56:12;97259.38;;;11.30;60.88
77574;BME280;66710;48.868;9.080;2023-04-15T12:58:37;97263.88;;;11.21;57.90
77574;BME280;66710;48.868;9.080;2023-04-15T13:01:02;97260.31;;;11.39;58.71
77574;BME280;66710;48.868;9.080;2023-04-15T13:03:28;97260.88;;;11.74;57.07
77574;BME280;66710;48.868;9.080;2023-04-15T13:05:53;97268.25;;;11.93;54.49
77574;BME280;66710;48.868;9.080;2023-04-15T13:08:19;97273.72;;;11.74;53.45
77574;BME280;66710;48.868;9.080;2023-04-15T13:10:44;97274.44;;;11.80;53.17